Time;durP1;ratioP1;P1;durP2;ratioP2;P2;SDS_P1;SDS_P2;PMS_P1;PMS_P2;Temp;Humidity;BMP_temperature;BMP_pressure;BME280_temperature;BME280_humidity;BME280_pressure;Samples;Min_cycle;Max_cycle;Signal;HPM_P1;HPM_P2
2023/11/26 00:00:06;;;;;;;;;;;;;;;5.99;100.00;101521.16;5078043;28;19923;-40
2023/11/26 00:02:31;;;;;;;;;;;;;;;6.16;100.00;101547.22;5076824;28;20006;-39
2023/11/26 00:04:57;;;;;;;;;;;;;;;6.33;100.00;101537.72;5075870;28;19912;-40
2023/11/26 00:07:22;;;;;;;;;;;;;;;6.51;100.00;101524.53;5075034;28;20019;-40
2023/11/26 00:09:48;;;;;;;;;;;;;;;6.65;100.00;101526.78;5073530;28;19974;-40
2023/11/26 00:12:13;;;;;;;;;;;;;;;6.68;100.00;101529.16;5073949;28;19919;-40
2023/11/26 00:14:38;;;;;;;;;;;;;;;6.66;100.00;101522.25;5073668;28;20355;-40
2023/11/26 00:17:04;;;;;;;;;;;;;;;6.58;100.00;101536.31;5055911;28;19955;-39
2023/11/26 00:19:30;;;;;;;;;;;;;;;6.48;100.00;101519.44;5073625;28;19912;-40
2023/11/26 00:21:55;;;;;;;;;;;;;;;6.40;100.00;101520.13;5073344;28;19916;-39
2023/11/26 00:24:21;;;;;;;;;;;;;;;6.26;100.00;101521.34;5073517;28;19912;-40
2023/11/26 00:26:46;;;;;;;;;;;;;;;6.07;100.00;101513.28;5073907;28;19912;-41
2023/11/26 00:29:11;;;;;;;;;;;;;;;5.90;100.00;101518.28;5078866;28;20070;-41
2023/11/26 00:31:37;;;;;;;;;;;;;;;5.78;100.00;101522.00;5076778;28;19924;-41
2023/11/26 00:34:02;;;;;;;;;;;;;;;5.67;100.00;101520.28;5073602;28;19920;-40
2023/11/26 00:36:27;;;;;;;;;;;;;;;5.60;100.00;101526.28;5072607;28;19916;-40
2023/11/26 00:38:53;;;;;;;;;;;;;;;5.59;100.00;101522.78;5085403;28;20198;-41
2023/11/26 00:41:18;;;;;;;;;;;;;;;5.51;100.00;101519.94;5075123;28;19931;-41
2023/11/26 00:43:43;;;;;;;;;;;;;;;5.40;100.00;101523.53;5089643;28;19908;-41
2023/11/26 00:46:08;;;;;;;;;;;;;;;5.32;100.00;101526.00;5087661;28;19916;-41
2023/11/26 00:48:34;;;;;;;;;;;;;;;5.27;100.00;101523.72;5080911;28;19916;-41
2023/11/26 00:50:59;;;;;;;;;;;;;;;5.28;100.00;101527.22;5080030;28;19916;-41
2023/11/26 00:53:24;;;;;;;;;;;;;;;5.31;100.00;101537.63;5078465;28;20001;-41
2023/11/26 00:55:49;;;;;;;;;;;;;;;5.38;100.00;101548.66;5079080;28;19912;-41
2023/11/26 00:58:14;;;;;;;;;;;;;;;5.43;100.00;101549.94;5073877;28;19912;-40
2023/11/26 01:00:40;;;;;;;;;;;;;;;5.48;100.00;101555.75;5083290;28;19989;-41
2023/11/26 01:03:06;;;;;;;;;;;;;;;5.58;100.00;101557.59;5068180;28;19921;-41
2023/11/26 01:05:31;;;;;;;;;;;;;;;5.64;100.00;101559.78;5073309;28;20023;-41
2023/11/26 01:07:56;;;;;;;;;;;;;;;5.73;100.00;101556.28;5085281;28;19974;-41
2023/11/26 01:10:21;;;;;;;;;;;;;;;5.82;100.00;101560.84;5075386;28;19924;-40
2023/11/26 01:12:47;;;;;;;;;;;;;;;5.78;100.00;101559.41;5059249;28;19916;-41
2023/11/26 01:15:13;;;;;;;;;;;;;;;5.76;100.00;101556.03;5068122;28;20318;-42
2023/11/26 01:17:38;;;;;;;;;;;;;;;5.75;100.00;101562.34;5074292;28;20374;-42
2023/11/26 01:20:04;;;;;;;;;;;;;;;5.78;100.00;101575.44;5063661;28;19927;-40
2023/11/26 01:22:29;;;;;;;;;;;;;;;5.79;100.00;101571.78;5062194;28;20004;-41
2023/11/26 01:24:54;;;;;;;;;;;;;;;5.81;100.00;101572.50;5080751;28;19916;-41
2023/11/26 01:27:20;;;;;;;;;;;;;;;5.82;100.00;101574.22;5078352;28;19979;-39
2023/11/26 01:29:45;;;;;;;;;;;;;;;5.84;100.00;101579.41;5074099;28;19917;-42
2023/11/26 01:32:11;;;;;;;;;;;;;;;5.86;100.00;101572.09;5061209;28;20035;-41
2023/11/26 01:34:36;;;;;;;;;;;;;;;5.93;100.00;101566.13;5063496;28;19961;-42
2023/11/26 01:37:01;;;;;;;;;;;;;;;5.96;100.00;101569.53;5081180;28;20413;-41
2023/11/26 01:39:26;;;;;;;;;;;;;;;5.90;100.00;101573.53;5072895;28;20373;-43
2023/11/26 01:41:52;;;;;;;;;;;;;;;5.87;100.00;101568.44;5079150;28;19916;-41
2023/11/26 01:44:17;;;;;;;;;;;;;;;5.84;100.00;101569.56;5087360;28;20023;-42
2023/11/26 01:46:42;;;;;;;;;;;;;;;5.77;100.00;101563.06;5084096;28;20303;-41
2023/11/26 01:49:08;;;;;;;;;;;;;;;5.72;100.00;101567.97;5072870;28;19916;-41
2023/11/26 01:51:33;;;;;;;;;;;;;;;5.66;100.00;101563.13;5073250;28;19939;-40
2023/11/26 01:53:58;;;;;;;;;;;;;;;5.60;100.00;101566.34;5079672;28;20336;-41
2023/11/26 01:56:23;;;;;;;;;;;;;;;5.52;100.00;101560.81;5072203;28;20255;-41
2023/11/26 01:58:49;;;;;;;;;;;;;;;5.44;100.00;101559.63;5091959;28;20373;-41
2023/11/26 02:01:16;;;;;;;;;;;;;;;5.39;100.00;101572.53;5096686;28;19916;-41
2023/11/26 02:03:41;;;;;;;;;;;;;;;5.32;100.00;101579.38;5084412;28;19916;-41
2023/11/26 02:06:08;;;;;;;;;;;;;;;5.31;100.00;101572.34;5074475;28;19942;-42
2023/11/26 02:08:33;;;;;;;;;;;;;;;5.28;100.00;101569.94;5075658;28;19979;-41
2023/11/26 02:10:59;;;;;;;;;;;;;;;5.23;100.00;101575.66;5069056;28;19955;-40
2023/11/26 02:13:25;;;;;;;;;;;;;;;5.21;100.00;101574.09;5083943;28;19916;-40
2023/11/26 02:15:50;;;;;;;;;;;;;;;5.18;100.00;101577.00;5096796;28;19916;-42
2023/11/26 02:18:15;;;;;;;;;;;;;;;5.17;100.00;101578.00;5101001;28;19938;-40
2023/11/26 02:20:41;;;;;;;;;;;;;;;5.15;100.00;101578.13;5101655;28;20012;-41
2023/11/26 02:23:07;;;;;;;;;;;;;;;5.19;100.00;101578.72;5089449;28;19916;-41
2023/11/26 02:25:33;;;;;;;;;;;;;;;5.19;100.00;101576.91;5099938;28;19916;-41
2023/11/26 02:27:59;;;;;;;;;;;;;;;5.19;100.00;101573.38;5099815;28;19916;-41
2023/11/26 02:30:24;;;;;;;;;;;;;;;5.16;100.00;101568.28;5087760;28;19951;-41
2023/11/26 02:32:50;;;;;;;;;;;;;;;5.17;100.00;101575.34;5076491;28;19919;-41
2023/11/26 02:35:15;;;;;;;;;;;;;;;5.17;100.00;101572.66;5078496;28;20458;-41
2023/11/26 02:37:40;;;;;;;;;;;;;;;5.18;100.00;101574.34;5083164;28;19916;-41
2023/11/26 02:40:06;;;;;;;;;;;;;;;5.21;100.00;101571.41;5088472;28;20002;-41
2023/11/26 02:42:32;;;;;;;;;;;;;;;5.24;100.00;101565.84;5071073;28;19925;-41
2023/11/26 02:44:57;;;;;;;;;;;;;;;5.28;100.00;101569.94;5082471;28;19915;-42
2023/11/26 02:47:23;;;;;;;;;;;;;;;5.30;100.00;101567.97;5095621;28;19935;-40
2023/11/26 02:49:48;;;;;;;;;;;;;;;5.30;100.00;101572.47;5093660;28;19923;-41
2023/11/26 02:52:13;;;;;;;;;;;;;;;5.32;100.00;101570.50;5084790;28;19917;-41
2023/11/26 02:54:39;;;;;;;;;;;;;;;5.32;100.00;101568.72;5059892;28;20282;-42
2023/11/26 02:57:06;;;;;;;;;;;;;;;5.32;100.00;101574.03;5084706;28;20323;-41
2023/11/26 02:59:31;;;;;;;;;;;;;;;5.33;100.00;101573.06;5055617;28;20345;-41
2023/11/26 03:01:59;;;;;;;;;;;;;;;5.34;100.00;101572.06;5073713;28;20031;-40
2023/11/26 03:04:25;;;;;;;;;;;;;;;5.35;100.00;101573.78;5082254;28;19924;-41
2023/11/26 03:06:52;;;;;;;;;;;;;;;5.38;100.00;101570.00;5095908;28;19915;-39
2023/11/26 03:09:35;;;;;;;;;;;;;;;5.37;100.00;101569.16;5078546;28;19920;-41
2023/11/26 03:14:45;;;;;;;;;;;;;;;5.42;100.00;101564.25;5085587;28;19962;-41
2023/11/26 03:17:10;;;;;;;;;;;;;;;5.52;100.00;101563.47;5095597;28;19915;-41
2023/11/26 03:19:35;;;;;;;;;;;;;;;5.62;100.00;101565.22;5094139;28;20048;-41
2023/11/26 03:22:07;;;;;;;;;;;;;;;5.72;100.00;101559.94;5091761;28;19985;-39
2023/11/26 03:24:33;;;;;;;;;;;;;;;5.80;100.00;101557.47;5090159;28;20012;-41
2023/11/26 03:26:58;;;;;;;;;;;;;;;5.85;100.00;101560.56;5094056;28;19966;-41
2023/11/26 03:29:24;;;;;;;;;;;;;;;5.96;100.00;101553.50;5089419;28;20003;-41
2023/11/26 03:31:50;;;;;;;;;;;;;;;5.99;100.00;101548.72;5092220;28;20005;-42
2023/11/26 03:34:15;;;;;;;;;;;;;;;6.03;100.00;101547.47;5094792;28;19920;-41
2023/11/26 03:36:41;;;;;;;;;;;;;;;6.05;100.00;101550.00;5094249;28;19916;-40
2023/11/26 03:39:06;;;;;;;;;;;;;;;6.06;100.00;101544.53;5092781;28;19928;-41
2023/11/26 03:41:31;;;;;;;;;;;;;;;6.06;100.00;101541.00;5083272;28;19913;-41
2023/11/26 03:43:56;;;;;;;;;;;;;;;6.05;100.00;101541.97;5091105;28;20001;-42
2023/11/26 03:46:22;;;;;;;;;;;;;;;6.03;100.00;101538.59;5089666;28;20216;-42
2023/11/26 03:48:49;;;;;;;;;;;;;;;5.99;100.00;101540.69;5094300;28;19916;-39
2023/11/26 03:51:18;;;;;;;;;;;;;;;5.99;100.00;101539.84;5094016;28;19978;-41
2023/11/26 03:53:43;;;;;;;;;;;;;;;5.99;100.00;101534.50;5088437;28;19917;-41
2023/11/26 03:56:08;;;;;;;;;;;;;;;5.97;100.00;101537.31;5093991;28;20321;-41
2023/11/26 03:58:34;;;;;;;;;;;;;;;5.96;100.00;101540.13;5094156;28;20508;-43
2023/11/26 04:00:59;;;;;;;;;;;;;;;5.97;100.00;101542.66;5085806;28;19923;-41
2023/11/26 04:03:25;;;;;;;;;;;;;;;6.00;100.00;101549.56;5082485;28;19916;-41
2023/11/26 04:05:50;;;;;;;;;;;;;;;6.06;100.00;101541.00;5097942;28;19926;-42
2023/11/26 04:08:15;;;;;;;;;;;;;;;6.15;100.00;101548.19;5093941;28;20392;-41
2023/11/26 04:10:40;;;;;;;;;;;;;;;6.21;100.00;101544.97;5091491;28;19915;-41
2023/11/26 04:13:06;;;;;;;;;;;;;;;6.29;100.00;101537.16;5088133;28;20022;-42
2023/11/26 04:15:31;;;;;;;;;;;;;;;6.32;100.00;101539.53;5092428;28;19944;-41
2023/11/26 04:17:57;;;;;;;;;;;;;;;6.33;100.00;101532.34;5081620;28;19938;-42
2023/11/26 04:20:22;;;;;;;;;;;;;;;6.33;100.00;101525.19;5091640;28;19966;-41
2023/11/26 04:22:47;;;;;;;;;;;;;;;6.35;100.00;101528.56;5089766;28;19916;-42
2023/11/26 04:25:14;;;;;;;;;;;;;;;6.36;100.00;101522.22;5067729;28;19912;-41
2023/11/26 04:27:40;;;;;;;;;;;;;;;6.37;100.00;101523.06;5093443;28;19968;-41
2023/11/26 04:30:07;;;;;;;;;;;;;;;6.38;100.00;101522.94;5090869;28;19916;-40
2023/11/26 04:32:32;;;;;;;;;;;;;;;6.53;100.00;101531.41;5080387;28;20430;-41
2023/11/26 04:34:58;;;;;;;;;;;;;;;6.48;100.00;101524.81;5091712;28;20011;-41
2023/11/26 04:37:23;;;;;;;;;;;;;;;6.47;100.00;101528.44;5079472;28;19959;-39
2023/11/26 04:39:49;;;;;;;;;;;;;;;6.43;100.00;101522.53;5093689;28;19939;-40
2023/11/26 04:42:15;;;;;;;;;;;;;;;6.44;100.00;101523.38;5081287;28;19917;-41
2023/11/26 04:44:42;;;;;;;;;;;;;;;6.38;100.00;101524.78;5073446;28;20063;-41
2023/11/26 04:47:08;;;;;;;;;;;;;;;6.34;100.00;101528.69;5072704;28;19923;-40
2023/11/26 04:49:34;;;;;;;;;;;;;;;6.32;100.00;101531.53;5078254;28;19923;-40
2023/11/26 04:51:59;;;;;;;;;;;;;;;6.29;100.00;101522.91;5096136;28;19916;-41
2023/11/26 04:54:26;;;;;;;;;;;;;;;6.24;100.00;101528.69;5093311;28;19963;-41
2023/11/26 04:56:51;;;;;;;;;;;;;;;6.19;100.00;101536.28;5092391;28;20311;-41
2023/11/26 04:59:17;;;;;;;;;;;;;;;6.13;100.00;101532.31;5079894;28;20255;-41
2023/11/26 05:01:44;;;;;;;;;;;;;;;6.13;100.00;101532.31;5088294;28;20014;-42
2023/11/26 05:04:13;;;;;;;;;;;;;;;6.10;100.00;101524.53;5083334;28;20254;-39
2023/11/26 05:06:38;;;;;;;;;;;;;;;6.15;100.00;101529.50;5068658;28;19966;-42
2023/11/26 05:09:05;;;;;;;;;;;;;;;6.14;100.00;101533.16;5083188;28;19924;-40
2023/11/26 05:11:31;;;;;;;;;;;;;;;6.11;100.00;101533.44;5068000;28;19959;-41
2023/11/26 05:13:56;;;;;;;;;;;;;;;6.12;100.00;101532.44;5084862;28;19959;-41
2023/11/26 05:16:21;;;;;;;;;;;;;;;6.11;100.00;101528.09;5089170;28;19916;-41
2023/11/26 05:18:46;;;;;;;;;;;;;;;6.10;100.00;101534.41;5064168;28;19916;-41
2023/11/26 05:21:12;;;;;;;;;;;;;;;6.13;100.00;101539.47;5076007;28;20058;-42
2023/11/26 05:23:38;;;;;;;;;;;;;;;6.07;100.00;101532.00;5083936;28;19960;-40
2023/11/26 05:26:03;;;;;;;;;;;;;;;6.19;100.00;101533.59;5091602;28;19916;-41
2023/11/26 05:28:29;;;;;;;;;;;;;;;6.24;100.00;101534.03;5082172;28;19997;-41
2023/11/26 05:30:54;;;;;;;;;;;;;;;6.28;100.00;101535.44;5082279;28;20288;-40
2023/11/26 05:33:19;;;;;;;;;;;;;;;6.35;100.00;101533.91;5086677;28;19923;-41
2023/11/26 05:35:44;;;;;;;;;;;;;;;6.46;100.00;101526.75;5091084;28;19920;-41
2023/11/26 05:38:10;;;;;;;;;;;;;;;6.44;100.00;101520.69;5085591;28;19947;-41
2023/11/26 05:40:35;;;;;;;;;;;;;;;6.47;100.00;101523.09;5069979;28;19920;-41
2023/11/26 05:43:01;;;;;;;;;;;;;;;6.43;100.00;101521.69;5083995;28;19919;-41
2023/11/26 05:45:26;;;;;;;;;;;;;;;6.32;100.00;101515.47;5094492;28;20290;-42
2023/11/26 05:47:51;;;;;;;;;;;;;;;6.25;100.00;101514.34;5094055;28;20014;-41
2023/11/26 05:50:16;;;;;;;;;;;;;;;6.19;100.00;101514.88;5079114;28;20415;-41
2023/11/26 05:52:41;;;;;;;;;;;;;;;6.14;100.00;101519.78;5094575;28;19920;-40
2023/11/26 05:55:07;;;;;;;;;;;;;;;6.09;100.00;101520.19;5094070;28;19911;-42
2023/11/26 05:57:32;;;;;;;;;;;;;;;6.04;100.00;101524.25;5071848;28;19916;-42
2023/11/26 05:59:59;;;;;;;;;;;;;;;6.00;100.00;101525.50;5090138;28;19915;-41
2023/11/26 06:02:24;;;;;;;;;;;;;;;5.96;100.00;101526.78;5091267;28;19926;-42
2023/11/26 06:04:49;;;;;;;;;;;;;;;5.92;100.00;101524.34;5094318;28;19916;-41
2023/11/26 06:07:14;;;;;;;;;;;;;;;5.86;100.00;101522.19;5070561;28;19916;-41
2023/11/26 06:09:40;;;;;;;;;;;;;;;5.83;100.00;101525.13;5093160;28;19916;-42
2023/11/26 06:12:06;;;;;;;;;;;;;;;5.83;100.00;101530.47;5083583;28;19923;-41
2023/11/26 06:14:31;;;;;;;;;;;;;;;5.98;100.00;101527.44;5093031;28;20285;-41
2023/11/26 06:16:56;;;;;;;;;;;;;;;6.07;100.00;101523.97;5093815;28;19923;-41
2023/11/26 06:19:21;;;;;;;;;;;;;;;6.12;100.00;101527.09;5080730;28;20020;-41
2023/11/26 06:21:47;;;;;;;;;;;;;;;6.21;100.00;101530.78;5081209;28;20007;-42
2023/11/26 06:24:12;;;;;;;;;;;;;;;6.28;100.00;101522.06;5071686;28;19942;-40
2023/11/26 06:26:38;;;;;;;;;;;;;;;6.38;100.00;101530.13;5071824;28;19916;-40
2023/11/26 06:29:03;;;;;;;;;;;;;;;6.45;100.00;101531.25;5073755;28;19920;-41
2023/11/26 06:31:29;;;;;;;;;;;;;;;6.49;100.00;101530.00;5049281;28;19923;-41
2023/11/26 06:33:55;;;;;;;;;;;;;;;6.51;100.00;101525.34;5063385;28;19919;-40
2023/11/26 06:36:24;;;;;;;;;;;;;;;6.54;100.00;101527.75;5073183;28;19919;-41
2023/11/26 06:38:50;;;;;;;;;;;;;;;6.53;100.00;101520.72;5068031;28;19961;-40
2023/11/26 06:41:23;;;;;;;;;;;;;;;6.56;100.00;101519.59;5056367;28;19916;-40
2023/11/26 06:43:48;;;;;;;;;;;;;;;6.57;100.00;101516.75;5082733;28;19923;-41
2023/11/26 06:46:17;;;;;;;;;;;;;;;6.59;100.00;101516.63;5077306;28;19920;-41
2023/11/26 06:48:43;;;;;;;;;;;;;;;6.64;100.00;101518.91;5090417;28;19920;-41
2023/11/26 06:51:12;;;;;;;;;;;;;;;6.63;100.00;101510.00;5078300;28;20374;-41
2023/11/26 06:53:37;;;;;;;;;;;;;;;6.63;100.00;101512.69;5071812;28;19920;-40
2023/11/26 06:56:03;;;;;;;;;;;;;;;6.63;100.00;101501.97;5055460;28;20274;-42
2023/11/26 06:58:28;;;;;;;;;;;;;;;6.63;100.00;101514.53;5055215;28;19947;-41
2023/11/26 07:00:53;;;;;;;;;;;;;;;6.59;100.00;101513.97;5078161;28;19916;-41
2023/11/26 07:03:18;;;;;;;;;;;;;;;6.56;100.00;101514.25;5080576;28;19928;-40
2023/11/26 07:05:43;;;;;;;;;;;;;;;6.53;100.00;101518.03;5075254;28;19916;-41
2023/11/26 07:08:09;;;;;;;;;;;;;;;6.53;100.00;101515.38;5069625;28;19924;-41
2023/11/26 07:10:35;;;;;;;;;;;;;;;6.51;100.00;101519.16;5074068;28;19916;-41
2023/11/26 07:13:00;;;;;;;;;;;;;;;6.48;100.00;101517.63;5079645;28;19916;-41
2023/11/26 07:15:25;;;;;;;;;;;;;;;6.44;100.00;101508.16;5085034;28;19926;-42
2023/11/26 07:17:51;;;;;;;;;;;;;;;6.43;100.00;101517.19;5066738;28;20290;-41
2023/11/26 07:20:17;;;;;;;;;;;;;;;6.42;100.00;101511.97;5094666;28;20369;-41
2023/11/26 07:22:42;;;;;;;;;;;;;;;6.42;100.00;101514.63;5059648;28;20393;-41
2023/11/26 07:25:08;;;;;;;;;;;;;;;6.40;100.00;101519.28;5066772;28;20277;-41
2023/11/26 07:27:33;;;;;;;;;;;;;;;6.40;100.00;101513.91;5073544;28;19974;-41
2023/11/26 07:29:58;;;;;;;;;;;;;;;6.41;100.00;101515.63;5089102;28;19915;-41
2023/11/26 07:32:26;;;;;;;;;;;;;;;6.41;100.00;101513.78;5094266;28;20278;-40
2023/11/26 07:34:51;;;;;;;;;;;;;;;6.41;100.00;101518.31;5094444;28;19927;-42
2023/11/26 07:37:17;;;;;;;;;;;;;;;6.43;100.00;101513.66;5094549;28;20297;-41
2023/11/26 07:39:42;;;;;;;;;;;;;;;6.45;100.00;101514.34;5094302;28;20015;-42
2023/11/26 07:42:07;;;;;;;;;;;;;;;6.46;100.00;101511.56;5093213;28;20289;-41
2023/11/26 07:44:33;;;;;;;;;;;;;;;6.48;100.00;101517.63;5094419;28;20364;-38
2023/11/26 07:47:01;;;;;;;;;;;;;;;6.50;100.00;101517.47;5093857;28;19931;-42
2023/11/26 07:49:29;;;;;;;;;;;;;;;6.52;100.00;101520.84;5094150;28;19912;-41
2023/11/26 07:51:54;;;;;;;;;;;;;;;6.53;100.00;101534.09;5093746;28;20331;-41
2023/11/26 07:54:19;;;;;;;;;;;;;;;6.54;100.00;101524.22;5075686;28;19919;-41
2023/11/26 07:56:44;;;;;;;;;;;;;;;6.57;100.00;101531.97;5093618;28;19990;-42
2023/11/26 07:59:10;;;;;;;;;;;;;;;6.59;100.00;101522.00;5092793;28;19916;-39
2023/11/26 08:01:35;;;;;;;;;;;;;;;6.65;100.00;101531.28;5095045;28;19916;-41
2023/11/26 08:04:01;;;;;;;;;;;;;;;6.72;100.00;101535.94;5096550;28;20374;-40
2023/11/26 08:06:26;;;;;;;;;;;;;;;6.75;100.00;101530.31;5094898;28;19920;-40
2023/11/26 08:08:53;;;;;;;;;;;;;;;6.94;100.00;101531.28;5095972;28;19922;-40
2023/11/26 08:11:19;;;;;;;;;;;;;;;7.07;100.00;101533.69;5094357;28;19922;-41
2023/11/26 08:13:45;;;;;;;;;;;;;;;7.16;100.00;101536.34;5077198;28;19940;-41
2023/11/26 08:16:13;;;;;;;;;;;;;;;7.14;100.00;101532.97;5080565;28;19927;-42
2023/11/26 08:18:39;;;;;;;;;;;;;;;7.11;100.00;101527.91;5094059;28;19923;-41
2023/11/26 08:21:06;;;;;;;;;;;;;;;7.04;100.00;101522.25;5093859;28;19915;-41
2023/11/26 08:23:32;;;;;;;;;;;;;;;6.99;100.00;101529.03;5094233;28;19912;-41
2023/11/26 08:25:58;;;;;;;;;;;;;;;6.95;100.00;101530.28;5093150;28;19916;-40
2023/11/26 08:28:28;;;;;;;;;;;;;;;6.93;100.00;101527.78;5094453;28;20371;-41
2023/11/26 08:30:54;;;;;;;;;;;;;;;6.96;100.00;101532.00;5075856;28;19942;-41
2023/11/26 08:33:22;;;;;;;;;;;;;;;6.99;100.00;101531.72;5093367;28;20557;-41
2023/11/26 08:35:51;;;;;;;;;;;;;;;7.02;100.00;101529.59;5095531;28;19964;-41
2023/11/26 08:38:16;;;;;;;;;;;;;;;7.08;100.00;101538.88;5096038;28;19916;-41
2023/11/26 08:40:41;;;;;;;;;;;;;;;7.10;100.00;101536.91;5096117;28;20293;-42
2023/11/26 08:43:10;;;;;;;;;;;;;;;7.14;100.00;101540.16;5095063;28;19912;-42
2023/11/26 08:45:41;;;;;;;;;;;;;;;7.17;100.00;101538.03;5094335;28;19912;-41
2023/11/26 08:48:07;;;;;;;;;;;;;;;7.17;100.00;101532.69;5093967;28;19911;-42
2023/11/26 08:50:33;;;;;;;;;;;;;;;7.19;100.00;101533.38;5094140;28;20343;-41
2023/11/26 08:52:59;;;;;;;;;;;;;;;7.20;100.00;101543.09;5094266;28;19912;-41
2023/11/26 08:55:24;;;;;;;;;;;;;;;7.22;100.00;101542.97;5077379;28;19923;-41
2023/11/26 08:57:50;;;;;;;;;;;;;;;7.25;100.00;101540.84;5092895;28;19916;-39
2023/11/26 09:00:16;;;;;;;;;;;;;;;7.29;100.00;101545.91;5075290;28;19955;-41
2023/11/26 09:02:41;;;;;;;;;;;;;;;7.31;100.00;101542.09;5075790;28;19920;-40
2023/11/26 09:05:09;;;;;;;;;;;;;;;7.34;100.00;101549.00;5093012;28;19977;-40
2023/11/26 09:07:46;;;;;;;;;;;;;;;7.36;100.00;101537.16;5095039;28;19916;-40
2023/11/26 09:10:12;;;;;;;;;;;;;;;7.39;100.00;101536.03;5090139;28;19923;-40
2023/11/26 09:12:37;;;;;;;;;;;;;;;7.39;100.00;101539.53;5075063;28;19913;-40
2023/11/26 09:15:07;;;;;;;;;;;;;;;7.42;100.00;101527.69;5085188;28;19915;-40
2023/11/26 09:17:33;;;;;;;;;;;;;;;7.46;100.00;101537.16;5095747;28;20025;-42
2023/11/26 09:19:58;;;;;;;;;;;;;;;7.48;100.00;101536.00;5099075;28;19912;-40
2023/11/26 09:22:23;;;;;;;;;;;;;;;7.55;100.00;101530.06;5093216;28;19924;-41
2023/11/26 09:24:48;;;;;;;;;;;;;;;7.58;100.00;101533.31;5096535;28;20502;-41
2023/11/26 09:27:13;;;;;;;;;;;;;;;7.61;100.00;101530.34;5097424;28;19916;-40
2023/11/26 09:29:39;;;;;;;;;;;;;;;7.65;100.00;101531.72;5091580;28;20322;-40
2023/11/26 09:32:04;;;;;;;;;;;;;;;7.68;100.00;101523.38;5075553;28;19923;-40
2023/11/26 09:34:30;;;;;;;;;;;;;;;7.69;100.00;101530.47;5074809;28;19927;-41
2023/11/26 09:36:58;;;;;;;;;;;;;;;7.73;100.00;101544.41;5077610;28;20316;-40
2023/11/26 09:39:23;;;;;;;;;;;;;;;7.73;100.00;101530.16;5076492;28;20286;-41
2023/11/26 09:41:51;;;;;;;;;;;;;;;7.68;100.00;101526.06;5074794;28;19920;-44
2023/11/26 09:44:16;;;;;;;;;;;;;;;7.74;100.00;101529.16;5071556;28;19912;-44
2023/11/26 09:46:44;;;;;;;;;;;;;;;7.69;100.00;101522.41;5074653;28;19924;-44
2023/11/26 09:49:09;;;;;;;;;;;;;;;7.65;100.00;101529.03;5071464;28;19944;-45
2023/11/26 09:51:35;;;;;;;;;;;;;;;7.66;100.00;101522.72;5071486;28;19943;-42
2023/11/26 09:54:01;;;;;;;;;;;;;;;7.68;100.00;101528.75;5071280;28;19912;-42
2023/11/26 09:56:26;;;;;;;;;;;;;;;7.70;100.00;101531.28;5070754;28;19928;-42
2023/11/26 09:58:51;;;;;;;;;;;;;;;7.74;100.00;101538.06;5039385;28;19916;-41
2023/11/26 10:01:16;;;;;;;;;;;;;;;7.77;100.00;101534.25;5071477;28;20240;-41
2023/11/26 10:03:54;;;;;;;;;;;;;;;7.80;100.00;101534.78;5077030;28;19916;-41
2023/11/26 10:06:20;;;;;;;;;;;;;;;7.82;100.00;101539.97;5069904;28;20352;-41
2023/11/26 10:08:45;;;;;;;;;;;;;;;7.89;100.00;101525.00;5064987;28;20049;-40
2023/11/26 10:11:10;;;;;;;;;;;;;;;7.89;100.00;101538.41;5063897;28;20662;-41
2023/11/26 10:13:37;;;;;;;;;;;;;;;7.85;100.00;101520.94;5047735;28;20256;-40
2023/11/26 10:16:02;;;;;;;;;;;;;;;7.81;100.00;101530.25;5071751;28;19917;-41
2023/11/26 10:18:37;;;;;;;;;;;;;;;7.77;100.00;101529.72;5070668;28;20457;-41
2023/11/26 10:21:02;;;;;;;;;;;;;;;7.78;100.00;101527.88;5067523;28;19923;-39
2023/11/26 10:23:35;;;;;;;;;;;;;;;7.78;100.00;101530.56;5070803;28;19917;-40
2023/11/26 10:26:01;;;;;;;;;;;;;;;7.76;100.00;101527.19;5071349;28;19916;-42
2023/11/26 10:28:26;;;;;;;;;;;;;;;7.72;100.00;101520.44;5054795;28;19916;-43
2023/11/26 10:30:51;;;;;;;;;;;;;;;7.64;100.00;101519.31;5074249;28;19956;-46
2023/11/26 10:33:17;;;;;;;;;;;;;;;7.59;100.00;101520.75;5078052;28;19920;-45
2023/11/26 10:35:49;;;;;;;;;;;;;;;7.54;100.00;101523.03;5057534;28;19951;-43
2023/11/26 10:38:15;;;;;;;;;;;;;;;7.52;100.00;101525.00;5087448;28;20381;-42
2023/11/26 10:40:41;;;;;;;;;;;;;;;7.50;100.00;101517.09;5055634;28;19913;-43
2023/11/26 10:43:07;;;;;;;;;;;;;;;7.58;100.00;101525.28;5054651;28;19919;-42
2023/11/26 10:45:33;;;;;;;;;;;;;;;7.56;100.00;101524.56;5056273;28;19928;-42
2023/11/26 10:48:00;;;;;;;;;;;;;;;7.55;100.00;101530.91;5080952;28;20392;-41
2023/11/26 10:50:25;;;;;;;;;;;;;;;7.54;100.00;101529.22;5061236;28;19916;-42
2023/11/26 10:52:56;;;;;;;;;;;;;;;7.57;100.00;101525.41;5057240;28;20012;-42
2023/11/26 10:55:24;;;;;;;;;;;;;;;7.55;100.00;101525.53;5071994;28;19916;-43
2023/11/26 10:57:54;;;;;;;;;;;;;;;7.44;100.00;101523.88;5066012;28;20428;-42
2023/11/26 11:00:19;;;;;;;;;;;;;;;7.45;100.00;101527.41;5094102;28;20348;-43
2023/11/26 11:02:45;;;;;;;;;;;;;;;7.48;100.00;101524.47;5093132;28;19947;-43
2023/11/26 11:05:11;;;;;;;;;;;;;;;7.47;100.00;101514.72;5094043;28;19961;-43
2023/11/26 11:07:37;;;;;;;;;;;;;;;7.48;100.00;101525.31;5070512;28;19996;-44
2023/11/26 11:10:06;;;;;;;;;;;;;;;7.48;100.00;101513.75;5055742;28;19916;-43
2023/11/26 11:12:35;;;;;;;;;;;;;;;7.48;100.00;101519.94;5074830;28;20252;-43
2023/11/26 11:15:00;;;;;;;;;;;;;;;7.48;100.00;101514.59;5056231;28;19923;-43
2023/11/26 11:17:27;;;;;;;;;;;;;;;7.49;100.00;101510.06;5064254;28;19916;-41
2023/11/26 11:19:53;;;;;;;;;;;;;;;7.49;100.00;101510.06;5082982;28;19928;-41
2023/11/26 11:22:18;;;;;;;;;;;;;;;7.53;100.00;101505.25;5090702;28;19916;-41
2023/11/26 11:24:44;;;;;;;;;;;;;;;7.58;100.00;101511.88;5094982;28;19927;-41
2023/11/26 11:27:09;;;;;;;;;;;;;;;7.60;100.00;101512.56;5084843;28;19916;-42
2023/11/26 11:29:34;;;;;;;;;;;;;;;7.61;100.00;101508.91;5093440;28;20482;-41
2023/11/26 11:32:02;;;;;;;;;;;;;;;7.60;100.00;101512.56;5078209;28;19916;-40
2023/11/26 11:34:28;;;;;;;;;;;;;;;7.57;100.00;101501.31;5058947;28;20010;-40
2023/11/26 11:36:54;;;;;;;;;;;;;;;7.46;100.00;101505.00;5076890;28;20392;-41
2023/11/26 11:39:21;;;;;;;;;;;;;;;7.42;100.00;101492.88;5074018;28;19920;-40
2023/11/26 11:41:55;;;;;;;;;;;;;;;7.40;100.00;101492.22;5065795;28;19916;-41
2023/11/26 11:44:24;;;;;;;;;;;;;;;7.40;100.00;101489.53;5058068;28;19931;-40
2023/11/26 11:46:49;;;;;;;;;;;;;;;7.42;100.00;101492.88;5076693;28;19943;-42
2023/11/26 11:49:14;;;;;;;;;;;;;;;7.46;100.00;101487.09;5076022;28;20374;-40
2023/11/26 11:51:41;;;;;;;;;;;;;;;7.54;100.00;101489.06;5085110;28;19923;-41
2023/11/26 11:54:14;;;;;;;;;;;;;;;7.59;100.00;101489.47;5092173;28;19927;-40
2023/11/26 11:56:40;;;;;;;;;;;;;;;7.67;100.00;101484.19;5088191;28;20341;-41
2023/11/26 11:59:06;;;;;;;;;;;;;;;7.67;100.00;101484.19;5084210;28;19916;-42
2023/11/26 12:01:33;;;;;;;;;;;;;;;7.78;100.00;101487.69;5062751;28;19923;-41
2023/11/26 12:04:01;;;;;;;;;;;;;;;7.86;100.00;101485.94;5074025;28;20007;-43
2023/11/26 12:06:26;;;;;;;;;;;;;;;7.86;100.00;101490.47;5071056;28;19912;-44
2023/11/26 12:09:12;;;;;;;;;;;;;;;7.83;100.00;101488.09;5070793;28;20015;-44
2023/11/26 12:11:44;;;;;;;;;;;;;;;7.83;100.00;101485.41;5066914;28;19970;-45
2023/11/26 12:14:09;;;;;;;;;;;;;;;7.78;100.00;101485.00;5072699;28;19923;-43
2023/11/26 12:16:35;;;;;;;;;;;;;;;7.76;100.00;101479.78;5084264;28;19916;-44
2023/11/26 12:19:00;;;;;;;;;;;;;;;7.73;100.00;101468.53;5091549;28;19923;-43
2023/11/26 12:21:25;;;;;;;;;;;;;;;7.73;100.00;101476.56;5077799;28;20003;-43
2023/11/26 12:23:50;;;;;;;;;;;;;;;7.67;100.00;101473.50;5074415;28;19920;-42
2023/11/26 12:26:16;;;;;;;;;;;;;;;7.61;100.00;101487.47;5077305;28;19935;-43
2023/11/26 12:28:42;;;;;;;;;;;;;;;7.57;100.00;101488.75;5074672;28;20393;-42
2023/11/26 12:31:07;;;;;;;;;;;;;;;7.55;100.00;101485.38;5062846;28;19916;-42